Time;durP1;ratioP1;P1;durP2;ratioP2;P2;SDS_P1;SDS_P2;PMS_P1;PMS_P2;Temp;Humidity;BMP_temperature;BMP_pressure;BME280_temperature;BME280_humidity;BME280_pressure;Samples;Min_cycle;Max_cycle;Signal;HPM_P1;HPM_P2
2023/12/04 00:08:13;;;;;;;3.70;2.30;;;-6.20;99.90;;;;;;20908412;28;20033;-53
2023/12/04 00:18:15;;;;;;;2.63;1.52;;;-6.30;99.90;;;;;;20927749;28;20053;-49
2023/12/04 00:28:17;;;;;;;7.82;2.90;;;-6.50;99.90;;;;;;20928321;28;20079;-52
2023/12/04 00:38:19;;;;;;;4.40;2.35;;;-6.40;99.90;;;;;;20947990;28;20033;-54
2023/12/04 00:48:20;;;;;;;3.63;2.00;;;-6.30;99.90;;;;;;20907506;28;20040;-54
2023/12/04 00:58:22;;;;;;;8.00;4.00;;;-6.50;99.90;;;;;;20907257;28;20041;-54
2023/12/04 01:08:24;;;;;;;6.95;3.50;;;-6.60;99.90;;;;;;20911875;28;20055;-53
2023/12/04 01:18:26;;;;;;;2.67;1.42;;;-6.60;99.90;;;;;;20962640;28;20056;-52
2023/12/04 01:28:27;;;;;;;2.25;1.20;;;-6.60;99.90;;;;;;20988876;28;20385;-51
2023/12/04 01:38:29;;;;;;;2.15;0.93;;;-6.50;99.90;;;;;;20998784;28;20028;-52
2023/12/04 01:48:31;;;;;;;1.05;0.52;;;-6.60;99.90;;;;;;21003100;28;20127;-49
2023/12/04 01:58:34;;;;;;;2.03;0.82;;;-6.40;99.90;;;;;;21001699;28;20551;-53
2023/12/04 02:08:36;;;;;;;2.55;1.00;;;-6.60;99.90;;;;;;21001458;28;20366;-54
2023/12/04 02:18:38;;;;;;;2.15;1.17;;;-6.70;99.90;;;;;;21000848;28;20094;-47
2023/12/04 02:28:41;;;;;;;2.17;1.23;;;-6.80;99.90;;;;;;20934406;28;20483;-54
2023/12/04 02:38:43;;;;;;;2.15;1.08;;;-6.70;99.90;;;;;;20913004;28;20062;-53
2023/12/04 02:48:45;;;;;;;4.18;0.82;;;-6.80;99.90;;;;;;20914965;28;20029;-48
2023/12/04 02:58:47;;;;;;;1.70;0.80;;;-6.90;99.90;;;;;;20914598;28;20029;-50
2023/12/04 03:08:48;;;;;;;2.00;0.85;;;-6.70;99.90;;;;;;20925865;28;20474;-55
2023/12/04 03:18:50;;;;;;;1.27;0.73;;;-6.70;99.90;;;;;;20901446;28;20050;-53
2023/12/04 03:28:52;;;;;;;1.60;0.85;;;-6.70;99.90;;;;;;20904660;28;20036;-51
2023/12/04 03:38:54;;;;;;;3.25;1.20;;;-6.60;99.90;;;;;;20907657;28;20091;-52
2023/12/04 03:48:56;;;;;;;2.70;1.20;;;-6.70;99.90;;;;;;20908199;28;20375;-52
2023/12/04 03:58:57;;;;;;;2.22;1.10;;;-6.60;99.90;;;;;;20906929;28;20040;-47
2023/12/04 04:08:59;;;;;;;2.17;1.10;;;-6.70;99.90;;;;;;20907042;28;20056;-51
2023/12/04 04:19:05;;;;;;;2.05;1.05;;;-6.70;99.90;;;;;;20931873;28;20052;-54
2023/12/04 04:29:08;;;;;;;1.60;0.85;;;-6.70;99.90;;;;;;20971004;28;20040;-47
2023/12/04 04:39:13;;;;;;;2.35;1.20;;;-6.60;99.90;;;;;;20987537;28;20089;-51
2023/12/04 04:49:15;;;;;;;2.95;1.63;;;-6.50;99.90;;;;;;20968592;28;20071;-48
2023/12/04 04:59:17;;;;;;;5.03;2.05;;;-6.50;99.90;;;;;;20987111;28;20093;-51
2023/12/04 05:09:19;;;;;;;6.63;2.92;;;-6.40;99.90;;;;;;20991062;28;20543;-54
2023/12/04 05:19:20;;;;;;;8.82;4.68;;;-6.30;99.90;;;;;;20974857;28;20114;-54
2023/12/04 05:29:22;;;;;;;5.95;3.47;;;-6.40;99.90;;;;;;20919317;28;20106;-48
2023/12/04 05:39:24;;;;;;;5.55;3.00;;;-6.30;99.90;;;;;;20938234;28;20036;-50
2023/12/04 05:49:30;;;;;;;4.93;2.22;;;-6.10;99.90;;;;;;21000793;28;20044;-52
2023/12/04 05:59:32;;;;;;;4.43;2.58;;;-5.80;99.90;;;;;;20963958;28;20044;-54
2023/12/04 06:09:36;;;;;;;3.90;2.17;;;-5.50;99.90;;;;;;20950116;28;20179;-52
2023/12/04 06:19:38;;;;;;;6.60;3.00;;;-5.50;99.90;;;;;;20914523;28;20194;-50
2023/12/04 06:29:40;;;;;;;5.50;2.70;;;-5.40;99.90;;;;;;20919853;28;20037;-54
2023/12/04 06:39:44;;;;;;;9.15;4.40;;;-5.40;99.90;;;;;;20952890;28;20033;-51
2023/12/04 06:49:46;;;;;;;5.88;3.08;;;-5.20;99.90;;;;;;20905434;28;20086;-55
2023/12/04 06:59:48;;;;;;;8.35;4.13;;;-5.00;99.90;;;;;;20912719;28;20037;-55
2023/12/04 07:09:50;;;;;;;8.48;4.93;;;-4.70;99.90;;;;;;20926099;28;20058;-54
2023/12/04 07:19:52;;;;;;;9.43;5.10;;;-4.50;99.90;;;;;;20966342;28;20086;-50
2023/12/04 07:29:54;;;;;;;9.35;4.40;;;-4.20;99.90;;;;;;20992869;28;20035;-54
2023/12/04 07:39:56;;;;;;;9.63;3.83;;;-4.00;99.90;;;;;;20987646;28;20470;-55
2023/12/04 07:49:59;;;;;;;10.85;6.28;;;-3.60;99.90;;;;;;20991344;28;20040;-52
2023/12/04 08:00:02;;;;;;;9.65;5.55;;;-3.30;99.90;;;;;;20990237;28;20036;-50
2023/12/04 08:10:06;;;;;;;9.43;5.30;;;-3.10;99.90;;;;;;20989785;28;20150;-50
2023/12/04 08:20:13;;;;;;;8.73;5.47;;;-2.90;99.90;;;;;;20988119;28;20060;-52
2023/12/04 08:30:16;;;;;;;8.88;5.72;;;-2.60;99.90;;;;;;20987690;28;20548;-52
2023/12/04 08:40:18;;;;;;;11.25;6.28;;;-2.10;99.90;;;;;;20988555;28;20036;-53
2023/12/04 08:50:20;;;;;;;9.27;5.70;;;-1.40;99.90;;;;;;20987988;28;20367;-53
2023/12/04 09:00:25;;;;;;;7.93;5.10;;;-1.40;99.90;;;;;;20987489;28;20036;-53
2023/12/04 09:10:27;;;;;;;9.13;5.32;;;-1.60;99.90;;;;;;20987062;28;20037;-55
2023/12/04 09:20:31;;;;;;;6.85;4.70;;;-1.50;99.90;;;;;;20986922;28;20048;-49
2023/12/04 09:30:36;;;;;;;8.93;5.35;;;-1.10;99.90;;;;;;20986593;28;20039;-48
2023/12/04 09:40:38;;;;;;;9.18;5.40;;;-0.30;99.90;;;;;;20986452;28;20037;-50
2023/12/04 09:50:40;;;;;;;9.82;5.15;;;0.10;99.90;;;;;;20986031;28;20547;-53
2023/12/04 10:00:43;;;;;;;6.72;4.43;;;0.30;99.90;;;;;;20995732;28;20406;-50
2023/12/04 10:10:45;;;;;;;8.93;5.18;;;-0.10;99.90;;;;;;20999633;28;20140;-52
2023/12/04 10:20:55;;;;;;;9.63;5.43;;;-0.20;99.90;;;;;;20998538;28;20040;-52
2023/12/04 10:30:57;;;;;;;7.10;4.13;;;-0.40;99.90;;;;;;20998227;28;20037;-50
2023/12/04 10:41:13;;;;;;;7.53;4.97;;;-0.50;99.90;;;;;;20997308;28;20035;-51
2023/12/04 10:51:17;;;;;;;9.10;5.35;;;0.10;99.90;;;;;;20996617;28;20040;-54
2023/12/04 11:01:20;;;;;;;6.95;4.13;;;0.20;99.90;;;;;;20990144;28;20081;-51
2023/12/04 11:11:31;;;;;;;7.53;4.20;;;-0.30;99.90;;;;;;20993904;28;20027;-51
2023/12/04 11:21:34;;;;;;;6.50;3.77;;;-0.20;99.90;;;;;;20986039;28;20036;-55
2023/12/04 11:31:36;;;;;;;7.00;4.22;;;-0.10;99.90;;;;;;20992936;28;20029;-48
2023/12/04 11:41:41;;;;;;;7.63;3.95;;;-0.20;99.90;;;;;;20991966;28;20032;-51
2023/12/04 11:51:47;;;;;;;5.75;3.78;;;-0.20;99.90;;;;;;20990332;28;20389;-52
2023/12/04 12:01:51;;;;;;;5.80;3.30;;;-0.10;99.90;;;;;;20992327;28;20040;-54
2023/12/04 12:11:56;;;;;;;6.03;3.55;;;0.00;99.90;;;;;;20990010;28;20036;-50
2023/12/04 12:21:57;;;;;;;6.70;3.78;;;-0.40;99.90;;;;;;20988532;28;20192;-53
2023/12/04 12:31:59;;;;;;;5.03;3.35;;;-0.40;99.90;;;;;;20989399;28;20044;-51
2023/12/04 12:42:04;;;;;;;6.32;4.10;;;-0.50;99.90;;;;;;20988556;28;20087;-51
2023/12/04 12:52:09;;;;;;;5.70;3.47;;;-0.70;99.90;;;;;;20988056;28;20086;-52
2023/12/04 13:02:11;;;;;;;7.07;3.95;;;-0.90;99.90;;;;;;20986054;28;20070;-53
2023/12/04 13:12:14;;;;;;;7.05;4.10;;;-0.90;99.90;;;;;;20984078;28;20095;-52
2023/12/04 13:22:16;;;;;;;8.55;4.95;;;-0.90;99.90;;;;;;20984278;28;20041;-54
2023/12/04 13:32:18;;;;;;;8.23;4.63;;;-0.80;99.90;;;;;;20993608;28;20064;-52
2023/12/04 13:52:39;;;;;;;5.57;3.63;;;-1.20;99.90;;;;;;21000990;28;20036;-52
2023/12/04 14:02:41;;;;;;;7.80;4.63;;;-1.40;99.90;;;;;;20993028;28;20037;-49
2023/12/04 14:12:43;;;;;;;9.35;5.38;;;-1.60;99.90;;;;;;20991689;28;20029;-53
2023/12/04 14:22:48;;;;;;;9.75;6.00;;;-1.80;99.90;;;;;;20971249;28;20037;-56
2023/12/04 14:32:49;;;;;;;11.50;6.40;;;-2.00;99.90;;;;;;20998158;28;20028;-54
2023/12/04 14:42:51;;;;;;;13.30;7.03;;;-2.10;99.90;;;;;;20996235;28;20090;-51
2023/12/04 14:52:55;;;;;;;10.15;6.18;;;-2.20;99.90;;;;;;20996378;28;20032;-51
2023/12/04 15:23:27;;;;;;;5.43;3.15;;;-2.30;99.90;;;;;;20993169;28;20052;-50
2023/12/04 15:33:30;;;;;;;5.13;2.78;;;-2.30;99.90;;;;;;20993329;28;20316;-52
2023/12/04 15:43:32;;;;;;;6.22;3.58;;;-2.40;99.90;;;;;;20991845;28;20032;-53
2023/12/04 15:53:34;;;;;;;6.35;3.22;;;-2.50;99.90;;;;;;20991223;28;20062;-51
2023/12/04 16:03:35;;;;;;;5.47;3.08;;;-2.50;99.90;;;;;;20992094;28;20351;-49
2023/12/04 16:13:37;;;;;;;4.90;2.80;;;-2.60;99.90;;;;;;20966599;28;20037;-48
2023/12/04 16:23:42;;;;;;;5.32;3.15;;;-2.60;99.90;;;;;;20950610;28;20052;-51
2023/12/04 16:33:44;;;;;;;5.50;3.22;;;-2.60;99.90;;;;;;20990586;28;20094;-52
2023/12/04 16:43:47;;;;;;;5.80;3.40;;;-2.70;99.90;;;;;;20983057;28;20048;-54
2023/12/04 16:53:49;;;;;;;4.45;2.55;;;-2.70;99.90;;;;;;20990589;28;20492;-55
2023/12/04 17:03:51;;;;;;;5.55;3.35;;;-2.60;99.90;;;;;;20992389;28;20094;-48
2023/12/04 17:13:53;;;;;;;6.07;3.35;;;-2.60;99.90;;;;;;21006602;28;20029;-55
2023/12/04 17:23:55;;;;;;;6.85;3.47;;;-2.60;99.90;;;;;;21005677;28;20048;-54
2023/12/04 17:33:56;;;;;;;3.83;2.30;;;-2.70;99.90;;;;;;21005404;28;20040;-48
2023/12/04 17:43:58;;;;;;;4.30;2.75;;;-2.60;99.90;;;;;;21004128;28;20044;-52
2023/12/04 17:54:00;;;;;;;3.08;2.00;;;-2.60;99.90;;;;;;21003431;28;20036;-51
2023/12/04 18:04:02;;;;;;;4.07;2.47;;;-2.60;99.90;;;;;;21002653;28;20087;-51
2023/12/04 18:14:04;;;;;;;3.60;1.80;;;-2.60;99.90;;;;;;21001904;28;20102;-54
2023/12/04 18:24:06;;;;;;;1.65;0.93;;;-2.50;99.90;;;;;;20991842;28;20049;-53
2023/12/04 18:34:08;;;;;;;2.03;1.10;;;-2.50;99.90;;;;;;21000389;28;20401;-52
2023/12/04 18:44:10;;;;;;;2.65;1.20;;;-2.50;99.90;;;;;;20999696;28;20024;-54
2023/12/04 18:54:13;;;;;;;0.90;0.60;;;-2.50;99.90;;;;;;20999094;28;20025;-50
2023/12/04 19:04:14;;;;;;;0.95;0.52;;;-2.50;99.90;;;;;;20998139;28;20059;-54
2023/12/04 19:14:16;;;;;;;0.80;0.55;;;-2.50;99.90;;;;;;20962401;28;20041;-54
2023/12/04 19:24:18;;;;;;;0.95;0.60;;;-2.50;99.90;;;;;;20995796;28;20079;-50
2023/12/04 19:34:20;;;;;;;0.90;0.60;;;-2.50;99.90;;;;;;20995501;28;20032;-52
2023/12/04 19:44:23;;;;;;;1.08;0.65;;;-2.50;99.90;;;;;;20994509;28;20039;-51
2023/12/04 19:54:25;;;;;;;0.90;0.65;;;-2.60;99.90;;;;;;20993761;28;20036;-53
2023/12/04 20:04:27;;;;;;;2.15;1.20;;;-2.80;99.90;;;;;;20991310;28;20032;-52
2023/12/04 20:14:29;;;;;;;1.50;0.75;;;-2.70;99.90;;;;;;20992205;28;20020;-51
2023/12/04 20:24:31;;;;;;;1.42;0.60;;;-2.60;99.90;;;;;;20983417;28;20044;-46
2023/12/04 20:34:33;;;;;;;2.10;0.85;;;-2.60;99.90;;;;;;20991086;28;20037;-51
2023/12/04 20:44:38;;;;;;;1.70;0.65;;;-2.60;99.90;;;;;;20990038;28;20033;-53
2023/12/04 20:54:40;;;;;;;1.48;0.73;;;-2.60;99.90;;;;;;20990364;28;20323;-53
2023/12/04 21:04:42;;;;;;;1.58;0.95;;;-2.60;99.90;;;;;;20989877;28;20435;-54
2023/12/04 21:14:45;;;;;;;1.58;0.70;;;-2.50;99.90;;;;;;20986441;28;20378;-51
2023/12/04 21:24:47;;;;;;;1.33;0.98;;;-2.60;99.90;;;;;;20913058;28;20052;-50
2023/12/04 21:34:49;;;;;;;1.52;0.73;;;-2.60;99.90;;;;;;20907067;28;20044;-55
2023/12/04 21:44:50;;;;;;;1.52;0.75;;;-2.50;99.90;;;;;;20905212;28;20308;-54
2023/12/04 21:54:55;;;;;;;1.67;0.93;;;-2.50;99.90;;;;;;20996928;28;20075;-51
2023/12/04 22:04:56;;;;;;;1.38;0.75;;;-2.50;99.90;;;;;;21002439;28;20033;-52
2023/12/04 22:14:58;;;;;;;1.48;0.77;;;-2.50;99.90;;;;;;20912702;28;20037;-52
2023/12/04 22:25:00;;;;;;;0.85;0.50;;;-2.40;99.90;;;;;;20884437;28;20045;-51
2023/12/04 22:35:03;;;;;;;1.08;0.60;;;-2.40;99.90;;;;;;20917396;28;20032;-50
2023/12/04 22:45:11;;;;;;;0.60;0.38;;;-2.40;99.90;;;;;;20917796;28;20033;-51
2023/12/04 22:55:13;;;;;;;0.85;0.30;;;-2.30;99.90;;;;;;20915387;28;20030;-52
2023/12/04 23:05:15;;;;;;;0.77;0.50;;;-2.10;99.90;;;;;;20914223;28;20398;-50
2023/12/04 23:15:18;;;;;;;0.80;0.60;;;-2.10;99.90;;;;;;20876018;28;20033;-51
2023/12/04 23:25:20;;;;;;;0.95;0.60;;;-2.10;99.90;;;;;;20951787;28;20106;-54
2023/12/04 23:35:21;;;;;;;0.73;0.50;;;-2.10;99.90;;;;;;20912121;28;20544;-52
2023/12/04 23:45:23;;;;;;;0.80;0.52;;;-2.10;99.90;;;;;;20911017;28;20036;-54
2023/12/04 23:55:25;;;;;;;1.42;0.77;;;-2.10;99.90;;;;;;20898222;28;20090;-54
